Time;durP1;ratioP1;P1;durP2;ratioP2;P2;SDS_P1;SDS_P2;PMS_P1;PMS_P2;Temp;Humidity;BMP_temperature;BMP_pressure;BME280_temperature;BME280_humidity;BME280_pressure;Samples;Min_cycle;Max_cycle;Signal;HPM_P1;HPM_P2
2023/09/29 00:00:51;;;;;;;7.73;5.67;;;;;;;;;;4974599;28;20949;-67
2023/09/29 00:03:19;;;;;;;6.80;6.20;;;;;;;;;;4974459;28;20471;-67
2023/09/29 00:05:45;;;;;;;7.30;6.60;;;;;;;;;;4974535;28;20418;-67
2023/09/29 00:08:22;;;;;;;6.40;5.90;;;;;;;;;;4971809;28;20493;-69
2023/09/29 00:10:50;;;;;;;6.37;5.80;;;;;;;;;;4974622;28;20395;-69
2023/09/29 00:13:16;;;;;;;6.10;5.60;;;;;;;;;;4973223;28;20478;-69
2023/09/29 00:15:42;;;;;;;9.67;5.87;;;;;;;;;;4974558;28;20430;-69
2023/09/29 00:18:08;;;;;;;6.43;5.73;;;;;;;;;;4974312;28;20924;-69
2023/09/29 00:20:35;;;;;;;8.87;6.40;;;;;;;;;;4974303;28;20404;-69
2023/09/29 00:23:02;;;;;;;6.73;6.10;;;;;;;;;;4974216;28;20988;-69
2023/09/29 00:25:28;;;;;;;5.50;4.97;;;;;;;;;;4974154;28;20530;-69
2023/09/29 00:27:55;;;;;;;9.63;5.10;;;;;;;;;;4974058;28;20849;-68
2023/09/29 00:30:21;;;;;;;7.83;5.80;;;;;;;;;;4974107;28;20419;-68
2023/09/29 00:32:48;;;;;;;11.77;5.67;;;;;;;;;;4974129;28;20924;-68
2023/09/29 00:35:19;;;;;;;6.53;6.00;;;;;;;;;;4974222;28;20422;-68
2023/09/29 00:37:45;;;;;;;6.27;5.70;;;;;;;;;;4974094;28;20495;-69
2023/09/29 00:40:15;;;;;;;5.40;5.10;;;;;;;;;;4973944;28;20422;-69
2023/09/29 00:42:43;;;;;;;7.33;5.33;;;;;;;;;;4973880;28;20481;-69
2023/09/29 00:45:10;;;;;;;7.50;5.60;;;;;;;;;;4974078;28;20446;-69
2023/09/29 00:47:38;;;;;;;8.33;6.27;;;;;;;;;;4973650;28;20449;-69
2023/09/29 00:50:05;;;;;;;6.17;5.77;;;;;;;;;;4973816;28;20857;-69
2023/09/29 00:52:33;;;;;;;6.63;6.13;;;;;;;;;;4973621;28;20919;-69
2023/09/29 00:54:59;;;;;;;7.40;5.70;;;;;;;;;;4973904;28;20414;-68
2023/09/29 00:57:26;;;;;;;6.20;5.70;;;;;;;;;;4973864;28;20456;-68
2023/09/29 00:59:54;;;;;;;6.63;6.03;;;;;;;;;;4973924;28;20417;-68
2023/09/29 01:02:21;;;;;;;10.43;5.43;;;;;;;;;;4973828;28;20545;-68
2023/09/29 01:04:47;;;;;;;5.73;5.40;;;;;;;;;;4973698;28;20418;-68
2023/09/29 01:07:13;;;;;;;5.70;5.20;;;;;;;;;;4973874;28;20417;-68
2023/09/29 01:09:42;;;;;;;5.80;5.20;;;;;;;;;;4973680;28;20932;-68
2023/09/29 01:12:10;;;;;;;5.77;5.13;;;;;;;;;;4973700;28;20425;-68
2023/09/29 01:14:38;;;;;;;5.97;5.57;;;;;;;;;;4973985;28;20819;-68
2023/09/29 01:17:04;;;;;;;11.10;5.10;;;;;;;;;;4973682;28;20481;-68
2023/09/29 01:19:31;;;;;;;6.23;5.73;;;;;;;;;;4973620;28;20517;-68
2023/09/29 01:21:57;;;;;;;5.53;5.13;;;;;;;;;;4973432;28;20888;-68
2023/09/29 01:24:24;;;;;;;12.03;5.90;;;;;;;;;;4973484;28;20437;-68
2023/09/29 01:26:49;;;;;;;10.80;5.60;;;;;;;;;;4973543;28;20433;-68
2023/09/29 01:29:15;;;;;;;7.70;5.13;;;;;;;;;;4973552;28;20944;-68
2023/09/29 01:31:44;;;;;;;5.70;5.30;;;;;;;;;;4973454;28;20487;-68
2023/09/29 01:34:10;;;;;;;6.00;5.50;;;;;;;;;;4973520;28;20463;-68
2023/09/29 01:36:39;;;;;;;8.60;5.20;;;;;;;;;;4972209;28;20968;-68
2023/09/29 01:39:05;;;;;;;7.60;5.77;;;;;;;;;;4973457;28;20449;-68
2023/09/29 01:41:34;;;;;;;5.80;5.30;;;;;;;;;;4973384;28;20971;-68
2023/09/29 01:44:00;;;;;;;5.60;5.10;;;;;;;;;;4976757;28;20504;-69
2023/09/29 01:46:26;;;;;;;6.37;5.87;;;;;;;;;;4977116;28;20497;-69
2023/09/29 01:48:51;;;;;;;6.20;5.60;;;;;;;;;;4976630;28;20800;-69
2023/09/29 01:51:17;;;;;;;5.57;5.17;;;;;;;;;;4977023;28;20442;-69
2023/09/29 01:53:45;;;;;;;6.07;5.60;;;;;;;;;;4976910;28;20425;-69
2023/09/29 01:56:11;;;;;;;5.70;5.00;;;;;;;;;;4977414;28;20445;-69
2023/09/29 01:58:37;;;;;;;7.07;5.20;;;;;;;;;;4975701;28;20817;-69
2023/09/29 02:01:03;;;;;;;6.07;5.60;;;;;;;;;;4976818;28;20424;-69
2023/09/29 02:03:30;;;;;;;5.83;4.97;;;;;;;;;;4976745;28;20413;-69
2023/09/29 02:05:55;;;;;;;5.60;5.20;;;;;;;;;;4976738;28;20879;-69
2023/09/29 02:08:25;;;;;;;6.00;5.50;;;;;;;;;;4976818;28;20457;-69
2023/09/29 02:10:52;;;;;;;6.27;5.77;;;;;;;;;;4976608;28;20442;-69
2023/09/29 02:13:18;;;;;;;5.77;5.27;;;;;;;;;;4976839;28;20422;-67
2023/09/29 02:15:44;;;;;;;9.63;5.83;;;;;;;;;;4976543;28;21135;-66
2023/09/29 02:18:10;;;;;;;6.67;4.90;;;;;;;;;;4976533;28;20791;-66
2023/09/29 02:20:39;;;;;;;5.30;4.90;;;;;;;;;;4976189;28;20445;-66
2023/09/29 02:23:07;;;;;;;5.53;5.03;;;;;;;;;;4976282;28;20474;-66
2023/09/29 02:25:33;;;;;;;7.77;5.43;;;;;;;;;;4976192;28;20464;-66
2023/09/29 02:27:59;;;;;;;5.60;5.10;;;;;;;;;;4976131;28;20417;-66
2023/09/29 02:30:26;;;;;;;5.50;5.10;;;;;;;;;;4975163;28;20461;-66
2023/09/29 02:32:52;;;;;;;5.97;5.40;;;;;;;;;;4975297;28;20830;-66
2023/09/29 02:35:18;;;;;;;8.60;4.90;;;;;;;;;;4976182;28;20444;-66
2023/09/29 02:37:44;;;;;;;5.40;4.87;;;;;;;;;;4976064;28;20440;-66
2023/09/29 02:40:11;;;;;;;6.40;5.77;;;;;;;;;;4976095;28;20424;-67
2023/09/29 02:42:37;;;;;;;5.27;4.87;;;;;;;;;;4976069;28;20457;-67
2023/09/29 02:45:04;;;;;;;6.47;5.70;;;;;;;;;;4976064;28;20848;-67
2023/09/29 02:47:30;;;;;;;5.60;5.10;;;;;;;;;;4976495;28;20894;-67
2023/09/29 02:50:02;;;;;;;8.00;5.00;;;;;;;;;;4976017;28;20441;-67
2023/09/29 02:52:28;;;;;;;5.80;5.30;;;;;;;;;;4976067;28;20438;-67
2023/09/29 02:54:57;;;;;;;5.93;5.43;;;;;;;;;;4974656;28;20835;-67
2023/09/29 02:57:25;;;;;;;6.70;5.40;;;;;;;;;;4975929;28;20424;-67
2023/09/29 02:59:51;;;;;;;7.40;5.43;;;;;;;;;;4975714;28;20452;-67
2023/09/29 03:02:17;;;;;;;6.07;5.20;;;;;;;;;;4975545;28;20508;-67
2023/09/29 03:04:43;;;;;;;6.30;3.90;;;;;;;;;;4975799;28;20398;-67
2023/09/29 03:07:09;;;;;;;6.70;4.67;;;;;;;;;;4975594;28;20417;-67
2023/09/29 03:09:36;;;;;;;5.43;5.13;;;;;;;;;;4975617;28;20773;-67
2023/09/29 03:12:03;;;;;;;5.57;5.20;;;;;;;;;;4975516;28;20531;-67
2023/09/29 03:14:29;;;;;;;5.63;4.80;;;;;;;;;;4975664;28;20417;-67
2023/09/29 03:16:57;;;;;;;6.03;5.37;;;;;;;;;;4974232;28;20536;-67
2023/09/29 03:19:24;;;;;;;5.10;4.77;;;;;;;;;;4975377;28;21060;-67
2023/09/29 03:21:50;;;;;;;5.40;4.90;;;;;;;;;;4975401;28;20607;-67
2023/09/29 03:24:16;;;;;;;5.90;5.17;;;;;;;;;;4975313;28;20416;-67
2023/09/29 03:26:44;;;;;;;6.50;4.80;;;;;;;;;;4975265;28;20459;-67
2023/09/29 03:29:10;;;;;;;5.53;5.03;;;;;;;;;;4975141;28;20900;-67
2023/09/29 03:31:36;;;;;;;9.17;5.10;;;;;;;;;;4975315;28;20527;-67
2023/09/29 03:34:02;;;;;;;9.97;5.17;;;;;;;;;;4974846;28;20415;-67
2023/09/29 03:36:30;;;;;;;6.27;5.30;;;;;;;;;;4975094;28;20483;-67
2023/09/29 03:38:59;;;;;;;5.63;5.00;;;;;;;;;;4974942;28;20935;-67
2023/09/29 03:41:25;;;;;;;5.83;5.00;;;;;;;;;;4974880;28;20464;-67
2023/09/29 03:43:52;;;;;;;6.10;5.50;;;;;;;;;;4975022;28;20417;-67
2023/09/29 03:46:19;;;;;;;9.57;4.63;;;;;;;;;;4975041;28;20401;-67
2023/09/29 03:48:47;;;;;;;5.00;4.80;;;;;;;;;;4975078;28;20412;-67
2023/09/29 03:51:13;;;;;;;5.40;4.90;;;;;;;;;;4975002;28;20438;-67
2023/09/29 03:53:39;;;;;;;6.10;5.00;;;;;;;;;;4974905;28;20455;-67
2023/09/29 03:56:04;;;;;;;5.73;4.97;;;;;;;;;;4974759;28;20455;-67
2023/09/29 03:58:33;;;;;;;5.73;5.33;;;;;;;;;;4974754;28;20420;-67
2023/09/29 04:00:59;;;;;;;8.90;5.17;;;;;;;;;;4974677;28;20801;-67
2023/09/29 04:03:25;;;;;;;5.17;4.87;;;;;;;;;;4974457;28;20495;-67
2023/09/29 04:05:51;;;;;;;12.47;10.07;;;;;;;;;;4973133;28;20432;-67
2023/09/29 04:08:17;;;;;;;8.00;6.57;;;;;;;;;;4974349;28;20793;-67
2023/09/29 04:10:43;;;;;;;5.83;4.50;;;;;;;;;;4974283;28;20534;-67
2023/09/29 04:13:09;;;;;;;4.43;4.23;;;;;;;;;;4972936;28;20463;-67
2023/09/29 04:15:36;;;;;;;5.30;5.00;;;;;;;;;;4974491;28;20456;-67
2023/09/29 04:18:04;;;;;;;5.47;5.07;;;;;;;;;;4972856;28;20467;-67
2023/09/29 04:20:31;;;;;;;5.60;5.20;;;;;;;;;;4974154;28;20996;-62
2023/09/29 04:22:57;;;;;;;5.23;4.83;;;;;;;;;;4974084;28;20493;-62
2023/09/29 04:25:25;;;;;;;4.90;4.50;;;;;;;;;;4973958;28;20494;-62
2023/09/29 04:27:51;;;;;;;5.23;4.80;;;;;;;;;;4973917;28;20451;-62
2023/09/29 04:30:17;;;;;;;5.17;4.80;;;;;;;;;;4973587;28;20437;-62
2023/09/29 04:32:43;;;;;;;5.67;5.17;;;;;;;;;;4973853;28;20440;-61
2023/09/29 04:35:10;;;;;;;6.10;5.60;;;;;;;;;;4973722;28;20436;-61
2023/09/29 04:37:36;;;;;;;5.40;4.97;;;;;;;;;;4973661;28;20415;-62
2023/09/29 04:40:03;;;;;;;9.20;5.40;;;;;;;;;;4973614;28;20412;-62
2023/09/29 04:42:34;;;;;;;5.37;4.90;;;;;;;;;;4973726;28;20983;-62
2023/09/29 04:45:02;;;;;;;6.30;4.80;;;;;;;;;;4973392;28;20433;-62
2023/09/29 04:47:28;;;;;;;6.60;4.53;;;;;;;;;;4973970;28;20770;-62
2023/09/29 04:49:54;;;;;;;5.80;5.30;;;;;;;;;;4972225;28;20425;-62
2023/09/29 04:52:20;;;;;;;4.90;4.57;;;;;;;;;;4973573;28;20420;-62
2023/09/29 04:54:46;;;;;;;5.50;5.03;;;;;;;;;;4973548;28;20429;-62
2023/09/29 04:57:12;;;;;;;8.80;5.13;;;;;;;;;;4974014;28;20879;-62
2023/09/29 04:59:38;;;;;;;5.73;5.20;;;;;;;;;;4973568;28;20460;-62
2023/09/29 05:02:08;;;;;;;8.50;4.70;;;;;;;;;;4972999;28;20471;-62
2023/09/29 05:04:35;;;;;;;81.67;39.87;;;;;;;;;;4972218;28;20429;-62
2023/09/29 05:07:03;;;;;;;93.90;50.70;;;;;;;;;;4973249;28;20427;-62
2023/09/29 05:09:31;;;;;;;101.33;53.50;;;;;;;;;;4973344;28;20957;-62
2023/09/29 05:11:57;;;;;;;11.00;8.70;;;;;;;;;;4973209;28;20510;-61
2023/09/29 05:14:26;;;;;;;27.80;18.07;;;;;;;;;;4973228;28;20464;-61
2023/09/29 05:16:53;;;;;;;124.07;63.03;;;;;;;;;;4974040;28;20470;-62
2023/09/29 05:19:21;;;;;;;102.77;51.23;;;;;;;;;;4977035;28;20974;-62
2023/09/29 05:21:47;;;;;;;6.67;5.93;;;;;;;;;;4977115;28;20480;-61
2023/09/29 05:24:13;;;;;;;60.33;27.53;;;;;;;;;;4976766;28;20432;-61
2023/09/29 05:26:39;;;;;;;13.13;5.90;;;;;;;;;;4977225;28;21155;-62
2023/09/29 05:29:05;;;;;;;9.83;5.60;;;;;;;;;;4977223;28;20455;-62
2023/09/29 05:31:33;;;;;;;6.17;5.67;;;;;;;;;;4976967;28;20907;-62
2023/09/29 05:33:59;;;;;;;8.20;6.03;;;;;;;;;;4976846;28;20514;-62
2023/09/29 05:36:29;;;;;;;6.23;4.90;;;;;;;;;;4977015;28;20400;-62
2023/09/29 05:38:58;;;;;;;6.53;4.80;;;;;;;;;;4976975;28;20438;-62
2023/09/29 05:41:24;;;;;;;9.53;6.00;;;;;;;;;;4976627;28;20482;-62
2023/09/29 05:43:52;;;;;;;8.00;6.10;;;;;;;;;;4976729;28;20491;-62
2023/09/29 05:46:18;;;;;;;11.23;5.90;;;;;;;;;;4977116;28;20411;-62
2023/09/29 05:48:47;;;;;;;8.23;5.90;;;;;;;;;;4976150;28;20848;-62
2023/09/29 05:51:13;;;;;;;6.00;5.37;;;;;;;;;;4976623;28;20927;-62
2023/09/29 05:53:41;;;;;;;5.60;4.73;;;;;;;;;;4975681;28;20439;-61
2023/09/29 05:56:12;;;;;;;7.90;5.67;;;;;;;;;;4975732;28;20399;-62
2023/09/29 05:58:38;;;;;;;5.90;4.73;;;;;;;;;;4976051;28;20829;-62
2023/09/29 06:01:16;;;;;;;5.43;4.90;;;;;;;;;;4974652;28;20443;-62
2023/09/29 06:03:42;;;;;;;5.87;5.47;;;;;;;;;;4974491;28;20503;-63
2023/09/29 06:06:09;;;;;;;8.23;4.77;;;;;;;;;;4979448;28;20427;-62
2023/09/29 06:08:36;;;;;;;5.80;4.93;;;;;;;;;;4975087;28;20503;-63
2023/09/29 06:11:02;;;;;;;6.73;5.27;;;;;;;;;;4975023;28;20424;-62
2023/09/29 06:13:31;;;;;;;10.43;4.73;;;;;;;;;;4975386;28;20500;-63
2023/09/29 06:15:57;;;;;;;6.10;5.00;;;;;;;;;;4987311;28;21018;-62
2023/09/29 06:18:23;;;;;;;8.43;5.03;;;;;;;;;;4985507;28;20427;-61
2023/09/29 06:20:49;;;;;;;6.20;5.70;;;;;;;;;;4982072;28;20446;-62
2023/09/29 06:23:15;;;;;;;6.37;5.30;;;;;;;;;;4986702;28;20473;-62
2023/09/29 06:25:41;;;;;;;13.23;5.20;;;;;;;;;;4984605;28;20541;-62
2023/09/29 06:28:07;;;;;;;12.10;5.73;;;;;;;;;;4984102;28;20488;-62
2023/09/29 06:30:36;;;;;;;7.03;5.40;;;;;;;;;;4975357;28;20518;-61
2023/09/29 06:33:02;;;;;;;11.17;4.80;;;;;;;;;;4982470;28;20424;-61
2023/09/29 06:35:28;;;;;;;9.97;5.20;;;;;;;;;;4995271;28;20854;-61
2023/09/29 06:37:54;;;;;;;15.20;5.40;;;;;;;;;;4995252;28;20903;-61
2023/09/29 06:40:20;;;;;;;7.77;6.50;;;;;;;;;;4995328;28;20551;-62
2023/09/29 06:42:46;;;;;;;13.03;6.43;;;;;;;;;;4994887;28;20518;-61
2023/09/29 06:45:14;;;;;;;6.40;5.77;;;;;;;;;;4995171;28;20940;-61
2023/09/29 06:47:40;;;;;;;6.97;6.27;;;;;;;;;;4995379;28;20481;-61
2023/09/29 06:50:10;;;;;;;9.50;6.57;;;;;;;;;;4994408;28;20489;-61
2023/09/29 06:52:37;;;;;;;11.20;6.03;;;;;;;;;;4993729;28;20412;-62
2023/09/29 06:55:03;;;;;;;5.97;5.20;;;;;;;;;;4993415;28;20827;-63
2023/09/29 06:57:29;;;;;;;5.77;5.37;;;;;;;;;;4993586;28;20405;-63
2023/09/29 06:59:57;;;;;;;6.37;5.87;;;;;;;;;;4990149;28;21015;-62
2023/09/29 07:02:26;;;;;;;5.70;5.30;;;;;;;;;;4977097;28;20473;-62
2023/09/29 07:04:54;;;;;;;6.00;5.50;;;;;;;;;;4974657;28;20781;-62
2023/09/29 07:07:20;;;;;;;8.30;6.37;;;;;;;;;;4974923;28;20411;-62
2023/09/29 07:09:46;;;;;;;6.43;5.87;;;;;;;;;;4975308;28;20736;-63
2023/09/29 07:12:12;;;;;;;5.80;5.30;;;;;;;;;;4977860;28;20414;-62
2023/09/29 07:14:38;;;;;;;5.63;5.20;;;;;;;;;;4974382;28;20442;-63
2023/09/29 07:17:04;;;;;;;6.40;5.40;;;;;;;;;;4974472;28;20924;-63
2023/09/29 07:19:31;;;;;;;6.73;5.97;;;;;;;;;;4973015;28;20435;-62
2023/09/29 07:21:58;;;;;;;5.57;4.93;;;;;;;;;;4974937;28;20517;-61
2023/09/29 07:24:26;;;;;;;10.77;5.80;;;;;;;;;;4974866;28;20531;-62
2023/09/29 07:26:52;;;;;;;6.00;5.60;;;;;;;;;;4975096;28;20435;-62
2023/09/29 07:29:18;;;;;;;5.87;5.50;;;;;;;;;;4975161;28;20509;-62
2023/09/29 07:31:48;;;;;;;10.20;5.70;;;;;;;;;;4974735;28;20431;-62
2023/09/29 07:34:15;;;;;;;7.90;5.77;;;;;;;;;;4975079;28;20422;-62
2023/09/29 07:36:43;;;;;;;5.93;5.33;;;;;;;;;;4974779;28;20788;-62
2023/09/29 07:39:11;;;;;;;10.10;5.67;;;;;;;;;;4973551;28;20462;-62
2023/09/29 07:41:37;;;;;;;6.30;5.70;;;;;;;;;;4973541;28;20464;-62
2023/09/29 07:44:03;;;;;;;5.93;5.50;;;;;;;;;;4970986;28;20579;-62
2023/09/29 07:46:29;;;;;;;8.97;5.90;;;;;;;;;;4973426;28;20459;-62
2023/09/29 07:48:55;;;;;;;5.83;5.30;;;;;;;;;;4973682;28;20454;-62
2023/09/29 07:51:24;;;;;;;5.67;5.00;;;;;;;;;;4973217;28;20547;-61
2023/09/29 07:53:50;;;;;;;5.23;4.90;;;;;;;;;;4973779;28;20404;-62
2023/09/29 07:56:16;;;;;;;6.50;5.67;;;;;;;;;;4973852;28;20441;-62
2023/09/29 07:58:42;;;;;;;7.30;5.57;;;;;;;;;;4973568;28;21102;-63
2023/09/29 08:01:11;;;;;;;11.23;5.47;;;;;;;;;;4979694;28;20422;-62
2023/09/29 08:03:37;;;;;;;5.23;4.70;;;;;;;;;;4981104;28;20427;-62
2023/09/29 08:06:03;;;;;;;4.93;4.60;;;;;;;;;;4981990;28;20882;-62
2023/09/29 08:08:29;;;;;;;9.80;4.70;;;;;;;;;;4983179;28;20428;-62
2023/09/29 08:10:55;;;;;;;5.10;3.93;;;;;;;;;;4981944;28;20905;-62
2023/09/29 08:13:23;;;;;;;5.10;4.60;;;;;;;;;;4967256;28;20420;-62
2023/09/29 08:15:49;;;;;;;4.53;3.40;;;;;;;;;;4964195;28;20426;-62
2023/09/29 08:18:17;;;;;;;4.13;3.40;;;;;;;;;;4966277;28;20451;-62
2023/09/29 08:20:43;;;;;;;5.80;3.60;;;;;;;;;;4962375;28;20446;-61
2023/09/29 08:23:11;;;;;;;9.03;3.77;;;;;;;;;;4966049;28;20495;-62
2023/09/29 08:25:38;;;;;;;6.83;3.57;;;;;;;;;;4960091;28;20437;-62
2023/09/29 08:28:04;;;;;;;3.87;3.67;;;;;;;;;;4959965;28;20509;-62
2023/09/29 08:30:33;;;;;;;4.17;3.90;;;;;;;;;;4971866;28;21026;-63
2023/09/29 08:33:01;;;;;;;8.80;6.20;;;;;;;;;;4968087;28;20424;-63
2023/09/29 08:35:28;;;;;;;5.40;3.80;;;;;;;;;;4963958;28;20489;-63
2023/09/29 08:37:54;;;;;;;4.90;4.57;;;;;;;;;;4963970;28;20452;-62
2023/09/29 08:40:20;;;;;;;9.50;4.50;;;;;;;;;;4962376;28;20427;-63
2023/09/29 08:42:52;;;;;;;4.17;3.53;;;;;;;;;;4964056;28;20486;-63
2023/09/29 08:45:21;;;;;;;5.73;4.93;;;;;;;;;;4968026;28;20871;-63
2023/09/29 08:47:53;;;;;;;4.23;3.70;;;;;;;;;;4975176;28;20471;-64
2023/09/29 08:50:22;;;;;;;3.07;2.97;;;;;;;;;;4991723;28;20556;-65
2023/09/29 08:52:49;;;;;;;3.63;3.53;;;;;;;;;;4970894;28;20425;-65
2023/09/29 08:55:16;;;;;;;10.77;3.97;;;;;;;;;;4960654;28;20941;-65
2023/09/29 08:57:43;;;;;;;3.37;3.03;;;;;;;;;;4962361;28;20486;-64
2023/09/29 09:00:13;;;;;;;10.73;3.30;;;;;;;;;;4961942;28;20450;-64
2023/09/29 09:02:43;;;;;;;3.70;3.40;;;;;;;;;;4960993;28;20476;-64
2023/09/29 09:05:13;;;;;;;4.10;3.43;;;;;;;;;;4972452;28;20915;-64
2023/09/29 09:07:41;;;;;;;3.50;3.20;;;;;;;;;;4981101;28;20514;-64
2023/09/29 09:10:09;;;;;;;4.20;2.90;;;;;;;;;;4980796;28;20478;-64
2023/09/29 09:12:37;;;;;;;9.40;3.27;;;;;;;;;;4980551;28;20431;-65
2023/09/29 09:15:08;;;;;;;3.60;3.40;;;;;;;;;;4981550;28;20420;-63
2023/09/29 09:17:35;;;;;;;2.90;2.73;;;;;;;;;;4988073;28;20990;-63
2023/09/29 09:20:01;;;;;;;11.50;3.80;;;;;;;;;;4973280;28;20429;-63
2023/09/29 09:22:32;;;;;;;7.27;3.43;;;;;;;;;;4971579;28;20476;-64
2023/09/29 09:25:04;;;;;;;3.50;3.17;;;;;;;;;;4971807;28;20456;-63
2023/09/29 09:27:37;;;;;;;3.30;3.20;;;;;;;;;;4971854;28;20430;-63
2023/09/29 09:30:03;;;;;;;3.67;3.33;;;;;;;;;;4971773;28;20443;-63
2023/09/29 09:32:32;;;;;;;3.83;2.90;;;;;;;;;;4970947;28;20413;-63
2023/09/29 09:34:58;;;;;;;8.63;3.57;;;;;;;;;;4971338;28;20432;-63
2023/09/29 09:37:25;;;;;;;5.70;3.50;;;;;;;;;;4971200;28;20410;-63
2023/09/29 09:39:53;;;;;;;7.13;3.40;;;;;;;;;;4985019;28;20452;-63
2023/09/29 09:42:19;;;;;;;7.10;3.40;;;;;;;;;;4990868;28;20473;-62
2023/09/29 09:44:45;;;;;;;5.90;3.20;;;;;;;;;;4991176;28;20916;-63
2023/09/29 09:47:14;;;;;;;3.30;3.20;;;;;;;;;;4979804;28;20852;-62
2023/09/29 09:49:41;;;;;;;3.50;3.20;;;;;;;;;;4971445;28;20457;-62
2023/09/29 09:52:08;;;;;;;3.00;2.80;;;;;;;;;;4970677;28;20975;-63
2023/09/29 09:54:49;;;;;;;3.30;3.10;;;;;;;;;;4971923;28;20426;-63
2023/09/29 09:57:19;;;;;;;3.43;3.13;;;;;;;;;;4971425;28;20426;-63
2023/09/29 09:59:45;;;;;;;4.97;3.33;;;;;;;;;;4971287;28;20917;-63
2023/09/29 10:02:12;;;;;;;3.80;3.30;;;;;;;;;;4971503;28;20528;-63
2023/09/29 10:04:38;;;;;;;6.20;3.93;;;;;;;;;;4973904;28;20446;-62
2023/09/29 10:07:04;;;;;;;5.10;3.40;;;;;;;;;;4975122;28;20894;-63
2023/09/29 10:09:46;;;;;;;4.00;3.63;;;;;;;;;;4974951;28;20544;-60
2023/09/29 10:12:26;;;;;;;3.80;3.60;;;;;;;;;;4974926;28;20421;-63
2023/09/29 10:14:55;;;;;;;4.63;3.60;;;;;;;;;;4987169;28;20532;-62
2023/09/29 10:17:26;;;;;;;4.30;3.03;;;;;;;;;;4994231;28;20580;-63
2023/09/29 10:19:54;;;;;;;3.80;3.47;;;;;;;;;;4972096;28;20949;-62
2023/09/29 10:22:24;;;;;;;3.60;3.20;;;;;;;;;;4969126;28;20465;-63
2023/09/29 10:24:56;;;;;;;4.00;3.70;;;;;;;;;;4981934;28;20414;-62
2023/09/29 10:27:27;;;;;;;5.77;4.40;;;;;;;;;;4995299;28;20477;-59
2023/09/29 10:30:02;;;;;;;3.63;3.43;;;;;;;;;;4991429;28;20422;-62
2023/09/29 10:32:32;;;;;;;6.10;3.60;;;;;;;;;;4977753;28;20429;-61
2023/09/29 10:35:01;;;;;;;9.50;3.37;;;;;;;;;;4983163;28;20441;-62
2023/09/29 10:37:41;;;;;;;4.00;3.63;;;;;;;;;;4984475;28;20838;-62
2023/09/29 10:40:08;;;;;;;3.90;3.70;;;;;;;;;;4983283;28;20423;-62
2023/09/29 10:42:38;;;;;;;12.37;3.73;;;;;;;;;;4988731;28;20465;-62
2023/09/29 10:45:06;;;;;;;4.47;3.33;;;;;;;;;;4995352;28;20426;-61
2023/09/29 10:47:37;;;;;;;7.43;3.33;;;;;;;;;;4994947;28;20752;-62
2023/09/29 10:50:10;;;;;;;5.80;3.73;;;;;;;;;;4994875;28;20413;-60
2023/09/29 10:52:36;;;;;;;6.90;4.00;;;;;;;;;;4993276;28;20532;-62
2023/09/29 10:55:04;;;;;;;8.13;4.13;;;;;;;;;;4994745;28;20524;-59
2023/09/29 10:57:30;;;;;;;7.60;4.40;;;;;;;;;;4995208;28;20428;-62
2023/09/29 10:59:59;;;;;;;6.10;4.13;;;;;;;;;;4994197;28;20422;-62
2023/09/29 11:02:35;;;;;;;3.77;3.57;;;;;;;;;;4994481;28;20473;-61
2023/09/29 11:05:07;;;;;;;3.70;3.40;;;;;;;;;;4994134;28;20441;-59
2023/09/29 11:07:46;;;;;;;7.10;3.23;;;;;;;;;;4994340;28;20445;-63
2023/09/29 11:10:12;;;;;;;4.00;3.17;;;;;;;;;;4994658;28;20425;-62
2023/09/29 11:12:45;;;;;;;3.80;3.50;;;;;;;;;;4994985;28;20410;-63
2023/09/29 11:15:12;;;;;;;5.30;4.20;;;;;;;;;;4992025;28;20421;-63
2023/09/29 11:17:50;;;;;;;5.70;3.67;;;;;;;;;;4994341;28;20924;-63
2023/09/29 11:20:26;;;;;;;4.97;3.47;;;;;;;;;;4993903;28;20509;-61
2023/09/29 11:23:06;;;;;;;7.13;3.77;;;;;;;;;;4992701;28;20492;-62
2023/09/29 11:25:33;;;;;;;3.50;3.30;;;;;;;;;;4993687;28;20520;-61
2023/09/29 11:27:59;;;;;;;6.30;3.13;;;;;;;;;;4993832;28;20553;-61
2023/09/29 11:30:25;;;;;;;3.93;3.60;;;;;;;;;;4994150;28;20492;-62
2023/09/29 11:32:53;;;;;;;3.53;3.23;;;;;;;;;;4993759;28;20845;-61
2023/09/29 11:35:22;;;;;;;4.80;4.00;;;;;;;;;;4994211;28;20452;-61
2023/09/29 11:37:48;;;;;;;7.70;3.73;;;;;;;;;;4992562;28;20471;-62
2023/09/29 11:40:16;;;;;;;10.03;4.03;;;;;;;;;;4992207;28;20509;-61
2023/09/29 11:42:45;;;;;;;9.67;3.87;;;;;;;;;;4993552;28;20837;-61
2023/09/29 11:45:11;;;;;;;4.00;3.80;;;;;;;;;;4993529;28;20828;-61
2023/09/29 11:47:41;;;;;;;7.00;3.20;;;;;;;;;;4993942;28;20417;-61
2023/09/29 11:50:11;;;;;;;8.57;3.90;;;;;;;;;;4993507;28;20440;-61
2023/09/29 11:52:39;;;;;;;3.60;3.30;;;;;;;;;;4993343;28;20964;-61
2023/09/29 11:55:11;;;;;;;2.97;2.87;;;;;;;;;;4993387;28;20421;-61
2023/09/29 11:57:40;;;;;;;6.00;3.00;;;;;;;;;;4993333;28;20441;-61
2023/09/29 12:00:08;;;;;;;2.93;2.73;;;;;;;;;;4993237;28;20853;-61
2023/09/29 12:02:34;;;;;;;2.67;2.57;;;;;;;;;;4993452;28;20461;-61
2023/09/29 12:05:04;;;;;;;8.47;2.83;;;;;;;;;;4992110;28;20433;-61
2023/09/29 12:07:31;;;;;;;3.73;3.17;;;;;;;;;;4993349;28;20429;-61
2023/09/29 12:09:57;;;;;;;3.37;3.17;;;;;;;;;;4992816;28;20422;-61
2023/09/29 12:12:23;;;;;;;2.40;2.30;;;;;;;;;;4993275;28;20445;-61
2023/09/29 12:14:49;;;;;;;2.10;2.10;;;;;;;;;;4993572;28;20406;-61
2023/09/29 12:17:15;;;;;;;2.17;1.97;;;;;;;;;;4992932;28;20429;-61
2023/09/29 12:19:43;;;;;;;2.80;2.60;;;;;;;;;;4993402;28;20830;-61
2023/09/29 12:22:09;;;;;;;17.50;11.30;;;;;;;;;;4993008;28;20879;-62
2023/09/29 12:24:35;;;;;;;2.97;2.87;;;;;;;;;;4992652;28;20524;-62
2023/09/29 12:27:01;;;;;;;5.30;2.70;;;;;;;;;;4992727;28;20516;-62
2023/09/29 12:29:29;;;;;;;2.67;2.57;;;;;;;;;;4992709;28;20469;-62
2023/09/29 12:31:55;;;;;;;2.50;2.40;;;;;;;;;;4991852;28;20417;-62
2023/09/29 12:34:23;;;;;;;2.57;2.37;;;;;;;;;;4992585;28;20429;-62
2023/09/29 12:36:49;;;;;;;2.77;2.67;;;;;;;;;;4993150;28;20410;-62
2023/09/29 12:39:15;;;;;;;4.20;3.07;;;;;;;;;;4992200;28;20418;-62
2023/09/29 12:41:42;;;;;;;2.37;2.27;;;;;;;;;;4992878;28;20488;-61
2023/09/29 12:44:09;;;;;;;8.13;2.77;;;;;;;;;;4992522;28;20990;-62
2023/09/29 12:46:35;;;;;;;3.13;2.43;;;;;;;;;;4992930;28;20442;-62
2023/09/29 12:49:01;;;;;;;1.80;1.80;;;;;;;;;;4992800;28;20421;-61
2023/09/29 12:51:27;;;;;;;2.90;2.33;;;;;;;;;;4992521;28;20434;-62
2023/09/29 12:53:53;;;;;;;4.80;2.70;;;;;;;;;;4992384;28;20493;-62
2023/09/29 12:56:19;;;;;;;3.37;2.43;;;;;;;;;;4992567;28;20513;-62
2023/09/29 12:58:45;;;;;;;2.57;2.40;;;;;;;;;;4992910;28;20900;-63
2023/09/29 13:01:11;;;;;;;3.33;2.33;;;;;;;;;;4992552;28;20424;-63
2023/09/29 13:03:39;;;;;;;3.97;2.43;;;;;;;;;;4992739;28;20890;-62
2023/09/29 13:06:06;;;;;;;2.37;2.27;;;;;;;;;;4992197;28;20471;-62
2023/09/29 13:08:38;;;;;;;2.40;2.30;;;;;;;;;;4991334;28;20473;-62
2023/09/29 13:11:04;;;;;;;3.10;2.53;;;;;;;;;;4991546;28;20425;-62
2023/09/29 13:13:30;;;;;;;2.20;1.90;;;;;;;;;;4991252;28;20418;-62
2023/09/29 13:15:58;;;;;;;1.57;1.53;;;;;;;;;;4992680;28;20446;-62
2023/09/29 13:18:27;;;;;;;7.53;2.10;;;;;;;;;;4992343;28;20418;-62
2023/09/29 13:20:53;;;;;;;1.90;1.90;;;;;;;;;;4992073;28;20422;-62
2023/09/29 13:23:21;;;;;;;2.77;2.57;;;;;;;;;;4992566;28;20473;-62
2023/09/29 13:25:51;;;;;;;2.20;2.10;;;;;;;;;;4992584;28;20461;-62
2023/09/29 13:28:17;;;;;;;3.47;2.43;;;;;;;;;;4992430;28;20417;-62
2023/09/29 13:30:46;;;;;;;3.27;2.33;;;;;;;;;;4992405;28;20430;-62
2023/09/29 13:33:14;;;;;;;8.93;3.20;;;;;;;;;;4991906;28;20440;-62
2023/09/29 13:35:40;;;;;;;3.23;2.37;;;;;;;;;;4991824;28;20418;-63
2023/09/29 13:38:06;;;;;;;2.50;2.40;;;;;;;;;;4992756;28;20412;-63
2023/09/29 13:40:32;;;;;;;5.80;3.03;;;;;;;;;;4995655;28;20429;-62
2023/09/29 13:43:00;;;;;;;4.60;3.47;;;;;;;;;;4996032;28;20460;-63
2023/09/29 13:45:26;;;;;;;3.67;3.40;;;;;;;;;;4995697;28;20414;-62
2023/09/29 13:47:52;;;;;;;6.80;4.57;;;;;;;;;;4996230;28;20416;-63
2023/09/29 13:50:19;;;;;;;9.83;7.00;;;;;;;;;;4996205;28;20893;-62
2023/09/29 13:52:45;;;;;;;11.73;6.77;;;;;;;;;;4995763;28;20413;-62
2023/09/29 13:55:11;;;;;;;10.63;6.80;;;;;;;;;;4995947;28;20417;-62
2023/09/29 13:57:38;;;;;;;11.77;6.93;;;;;;;;;;4995780;28;20422;-62
2023/09/29 14:00:04;;;;;;;11.03;7.00;;;;;;;;;;4996054;28;20949;-62
2023/09/29 14:02:30;;;;;;;10.57;6.63;;;;;;;;;;4994446;28;20469;-62
2023/09/29 14:04:59;;;;;;;11.27;6.70;;;;;;;;;;4994789;28;20864;-62
2023/09/29 14:07:25;;;;;;;9.77;6.00;;;;;;;;;;4980536;28;20435;-62
2023/09/29 14:09:54;;;;;;;8.93;6.70;;;;;;;;;;4975783;28;20465;-62
2023/09/29 14:12:20;;;;;;;9.10;6.50;;;;;;;;;;4976265;28;20410;-62
2023/09/29 14:14:47;;;;;;;12.10;7.03;;;;;;;;;;4976217;28;20425;-62
2023/09/29 14:17:15;;;;;;;11.27;7.27;;;;;;;;;;4975810;28;20599;-62
2023/09/29 14:19:41;;;;;;;11.10;7.20;;;;;;;;;;4976098;28;20440;-62
2023/09/29 14:22:07;;;;;;;11.40;6.23;;;;;;;;;;4974244;28;21028;-62
2023/09/29 14:24:33;;;;;;;10.97;7.37;;;;;;;;;;4975599;28;20458;-62
2023/09/29 14:27:01;;;;;;;13.07;7.27;;;;;;;;;;4974478;28;20513;-62
2023/09/29 14:29:28;;;;;;;15.30;8.67;;;;;;;;;;4975542;28;20465;-63
2023/09/29 14:31:54;;;;;;;12.00;8.40;;;;;;;;;;4974508;28;20457;-62
2023/09/29 14:34:20;;;;;;;13.53;8.17;;;;;;;;;;4975755;28;20450;-62
2023/09/29 14:36:46;;;;;;;22.50;14.20;;;;;;;;;;4975806;28;20411;-63
2023/09/29 14:39:11;;;;;;;12.60;8.80;;;;;;;;;;4977186;28;20450;-63
2023/09/29 14:41:37;;;;;;;15.00;9.93;;;;;;;;;;4984154;28;20414;-63